Kezdőlap
METAR-TAF:

METAR-TAF

Repülőterek :

Clines Corners, Új-Mexikó, Amerikai Egyesült Államok

földrajzi szélesség: 35-00N, földrajzi hosszúság: 105-40W, magasság: 2160 m

Jelenlegi meteorológiai megfigyelések

A jelentés 17 perccel ezelõtt készült, 02:53 UTC
Keleti szél 6 kt
Hőmérséklet 15°C
Páratartalom 82%
Légköri nyomás 1027 hPa
Látótávolság: 16.1 km
Szórványos felhőzet 10000 lábon

METAR: KCQC 230253Z AUTO 09006KT 10SM SCT100 15/12 A3034 RMK AO2 SLP199 T01500117 53007 $

Idő: 21:10 (03:10 UTC)


TAF: hiányzik

Meteorológiai megfigyelések és előrejelzések több, mint 4000 repülőtéren (METAR és TAF jelentéseket).

A térképen piros és sárga pontok jelzik az elérhető meteorológiai állomásokat.

Mozgassa az egeret a pont fölött, hogy megjelenjen az állomás neve.

Azután kattintson az időjárási megfigyelések és előrejelzések megtekintéséhez.

A térkép megváltoztatása: kattintson a fekete keresztel jelölt zöld gombra ráközelítéshez, a vonallal jelölt zöld gombra távolításhoz, vagy a zöld nyilakra a szomszédos térképek eléréséhez.


METAR-TAF: